SXS8RW LTAI-EBBR
Flight info
| Callsign | SXS8RW |
|---|---|
| Flight time | 3h 36m |
| Altitude | 34000 |
| Route | EKNUD UQ26 TUDBU/N0451F360 DCT RUEXX DCT GRN T226 NAVOD DCT EBORO DCT ARSIN DCT DEXIT DCT RUDNO L604 MOOCE DCT TEKTU DCT TESGA DCT UMUPU T880 BATTY |
| Aircraft | B738/M-SDE2E3FGHIRWXY/LB1 |
Departure
| Time | 2026-05-05 13:16 |
|---|---|
| Airport | Antalya International Airport (LTAI) |
Arrival
| Time | 2026-05-05 16:52 |
|---|---|
| Airport | Brussels Airport (EBBR) |
| Time | Latitude | Longitude | Altitude | Speed | Heading |
|---|---|---|---|---|---|
| 2026-05-05 12:37 | 36.90031 | 30.80524 | 175 ft | 0 kts | 277° |
| 2026-05-05 13:03 | 36.90030 | 30.80538 | 175 ft | 4 kts | 274° |
| 2026-05-05 13:03 | 36.90030 | 30.80570 | 175 ft | 4 kts | 264° |
| 2026-05-05 13:04 | 36.90035 | 30.80601 | 175 ft | 4 kts | 251° |
| 2026-05-05 13:04 | 36.90046 | 30.80629 | 175 ft | 4 kts | 228° |
| 2026-05-05 13:04 | 36.90064 | 30.80644 | 175 ft | 2 kts | 187° |
| 2026-05-05 13:04 | 36.90065 | 30.80644 | 175 ft | 1 kts | 186° |
| 2026-05-05 13:07 | 36.90063 | 30.80644 | 175 ft | 1 kts | 186° |
| 2026-05-05 13:08 | 36.90046 | 30.80642 | 175 ft | 4 kts | 186° |
| 2026-05-05 13:08 | 36.90011 | 30.80637 | 175 ft | 6 kts | 186° |
| 2026-05-05 13:08 | 36.89938 | 30.80627 | 175 ft | 9 kts | 186° |
| 2026-05-05 13:08 | 36.89892 | 30.80620 | 175 ft | 10 kts | 186° |
| 2026-05-05 13:09 | 36.89824 | 30.80611 | 175 ft | 10 kts | 184° |
| 2026-05-05 13:09 | 36.89772 | 30.80652 | 175 ft | 9 kts | 111° |
| 2026-05-05 13:09 | 36.89730 | 30.80707 | 175 ft | 9 kts | 168° |
| 2026-05-05 13:09 | 36.89666 | 30.80702 | 175 ft | 10 kts | 186° |
| 2026-05-05 13:10 | 36.89590 | 30.80691 | 175 ft | 12 kts | 186° |
| 2026-05-05 13:10 | 36.89500 | 30.80678 | 175 ft | 14 kts | 186° |
| 2026-05-05 13:10 | 36.89396 | 30.80665 | 175 ft | 16 kts | 186° |
| 2026-05-05 13:10 | 36.89284 | 30.80649 | 175 ft | 16 kts | 186° |
| 2026-05-05 13:11 | 36.89176 | 30.80634 | 175 ft | 15 kts | 186° |
| 2026-05-05 13:11 | 36.89073 | 30.80619 | 175 ft | 15 kts | 186° |
| 2026-05-05 13:11 | 36.88973 | 30.80605 | 175 ft | 14 kts | 186° |
| 2026-05-05 13:11 | 36.88878 | 30.80593 | 175 ft | 13 kts | 186° |
| 2026-05-05 13:12 | 36.88787 | 30.80581 | 176 ft | 13 kts | 186° |
| 2026-05-05 13:12 | 36.88699 | 30.80569 | 176 ft | 13 kts | 186° |
| 2026-05-05 13:12 | 36.88614 | 30.80556 | 176 ft | 12 kts | 186° |
| 2026-05-05 13:12 | 36.88529 | 30.80545 | 175 ft | 12 kts | 186° |
| 2026-05-05 13:13 | 36.88448 | 30.80533 | 176 ft | 12 kts | 186° |
| 2026-05-05 13:13 | 36.88368 | 30.80522 | 175 ft | 11 kts | 186° |
| 2026-05-05 13:13 | 36.88290 | 30.80512 | 175 ft | 11 kts | 186° |
| 2026-05-05 13:13 | 36.88215 | 30.80501 | 175 ft | 11 kts | 186° |
| 2026-05-05 13:14 | 36.88159 | 30.80521 | 175 ft | 9 kts | 131° |
| 2026-05-05 13:14 | 36.88143 | 30.80591 | 175 ft | 8 kts | 100° |
| 2026-05-05 13:14 | 36.88133 | 30.80662 | 174 ft | 8 kts | 99° |
| 2026-05-05 13:14 | 36.88144 | 30.80724 | 175 ft | 8 kts | 32° |
| 2026-05-05 13:15 | 36.88176 | 30.80732 | 175 ft | 0 kts | 6° |
| 2026-05-05 13:15 | 36.88190 | 30.80734 | 175 ft | 16 kts | 5° |
| 2026-05-05 13:15 | 36.88546 | 30.80783 | 178 ft | 86 kts | 6° |
| 2026-05-05 13:15 | 36.89357 | 30.80895 | 174 ft | 146 kts | 7° |
| 2026-05-05 13:16 | 36.90504 | 30.81035 | 380 ft | 177 kts | 5° |
| 2026-05-05 13:16 | 36.91723 | 30.81266 | 1217 ft | 176 kts | 19° |
| 2026-05-05 13:16 | 36.92814 | 30.81906 | 1992 ft | 177 kts | 22° |
| 2026-05-05 13:16 | 36.94059 | 30.82540 | 2342 ft | 206 kts | 19° |
| 2026-05-05 13:17 | 36.95438 | 30.83220 | 2780 ft | 218 kts | 20° |
| 2026-05-05 13:17 | 36.96854 | 30.83916 | 3380 ft | 223 kts | 19° |
| 2026-05-05 13:17 | 36.98312 | 30.84631 | 4084 ft | 222 kts | 20° |
| 2026-05-05 13:17 | 36.99748 | 30.85335 | 4593 ft | 232 kts | 19° |
| 2026-05-05 13:18 | 37.01301 | 30.86086 | 4997 ft | 245 kts | 20° |
| 2026-05-05 13:18 | 37.02960 | 30.86893 | 5370 ft | 264 kts | 20° |
| 2026-05-05 13:18 | 37.04696 | 30.87739 | 6085 ft | 269 kts | 20° |
| 2026-05-05 13:18 | 37.06442 | 30.88576 | 6922 ft | 270 kts | 17° |
| 2026-05-05 13:19 | 37.08300 | 30.88815 | 7673 ft | 271 kts | 353° |
| 2026-05-05 13:19 | 37.10163 | 30.88421 | 8453 ft | 273 kts | 348° |
| 2026-05-05 13:19 | 37.12026 | 30.87938 | 9185 ft | 276 kts | 348° |
| 2026-05-05 13:19 | 37.13913 | 30.87437 | 9949 ft | 277 kts | 348° |
| 2026-05-05 13:20 | 37.15831 | 30.86934 | 10488 ft | 289 kts | 348° |
| 2026-05-05 13:20 | 37.17888 | 30.86402 | 10652 ft | 313 kts | 348° |
| 2026-05-05 13:20 | 37.20096 | 30.85838 | 10848 ft | 333 kts | 348° |
| 2026-05-05 13:20 | 37.22408 | 30.85252 | 11359 ft | 342 kts | 348° |
| 2026-05-05 13:21 | 37.24743 | 30.84663 | 12104 ft | 343 kts | 348° |
| 2026-05-05 13:21 | 37.27096 | 30.84071 | 12810 ft | 345 kts | 348° |
| 2026-05-05 13:21 | 37.29433 | 30.83483 | 13475 ft | 349 kts | 348° |
| 2026-05-05 13:21 | 37.31818 | 30.82883 | 14182 ft | 350 kts | 348° |
| 2026-05-05 13:22 | 37.34209 | 30.82279 | 14895 ft | 351 kts | 348° |
| 2026-05-05 13:22 | 37.36614 | 30.81670 | 15535 ft | 354 kts | 348° |
| 2026-05-05 13:22 | 37.39040 | 30.81054 | 16153 ft | 356 kts | 348° |
| 2026-05-05 13:22 | 37.41479 | 30.80435 | 16765 ft | 359 kts | 348° |
| 2026-05-05 13:23 | 37.43959 | 30.80097 | 17388 ft | 361 kts | 359° |
| 2026-05-05 13:23 | 37.46485 | 30.80228 | 17993 ft | 363 kts | 1° |
| 2026-05-05 13:23 | 37.49011 | 30.80371 | 18599 ft | 364 kts | 1° |
| 2026-05-05 13:23 | 37.51556 | 30.80504 | 19176 ft | 366 kts | 1° |
| 2026-05-05 13:24 | 37.54072 | 30.80628 | 19698 ft | 369 kts | 0° |
| 2026-05-05 13:24 | 37.56653 | 30.80747 | 20192 ft | 372 kts | 0° |
| 2026-05-05 13:24 | 37.59250 | 30.80866 | 20674 ft | 374 kts | 360° |
| 2026-05-05 13:24 | 37.61860 | 30.80985 | 21212 ft | 375 kts | 359° |
| 2026-05-05 13:25 | 37.64470 | 30.81102 | 21752 ft | 376 kts | 359° |
| 2026-05-05 13:25 | 37.67092 | 30.81219 | 22208 ft | 378 kts | 359° |
| 2026-05-05 13:25 | 37.69733 | 30.81338 | 22689 ft | 379 kts | 359° |
| 2026-05-05 13:25 | 37.72380 | 30.81459 | 23114 ft | 381 kts | 359° |
| 2026-05-05 13:26 | 37.75048 | 30.81580 | 23529 ft | 384 kts | 359° |
| 2026-05-05 13:26 | 37.77717 | 30.81701 | 23990 ft | 384 kts | 359° |
| 2026-05-05 13:26 | 37.80391 | 30.81765 | 24400 ft | 386 kts | 357° |
| 2026-05-05 13:26 | 37.83050 | 30.81717 | 24776 ft | 388 kts | 356° |
| 2026-05-05 13:27 | 37.85749 | 30.81632 | 25161 ft | 390 kts | 355° |
| 2026-05-05 13:27 | 37.88483 | 30.81544 | 25558 ft | 392 kts | 355° |
| 2026-05-05 13:27 | 37.91216 | 30.81467 | 25901 ft | 394 kts | 355° |
| 2026-05-05 13:27 | 37.93964 | 30.81399 | 26246 ft | 396 kts | 356° |
| 2026-05-05 13:28 | 37.96726 | 30.81337 | 26602 ft | 397 kts | 355° |
| 2026-05-05 13:28 | 37.99496 | 30.81278 | 26918 ft | 399 kts | 356° |
| 2026-05-05 13:28 | 38.02291 | 30.81220 | 27239 ft | 401 kts | 356° |
| 2026-05-05 13:28 | 38.05096 | 30.81162 | 27522 ft | 404 kts | 356° |
| 2026-05-05 13:29 | 38.07907 | 30.81103 | 27817 ft | 405 kts | 356° |
| 2026-05-05 13:29 | 38.10737 | 30.81044 | 28090 ft | 408 kts | 356° |
| 2026-05-05 13:29 | 38.13571 | 30.80959 | 28377 ft | 409 kts | 354° |
| 2026-05-05 13:29 | 38.16372 | 30.80640 | 28662 ft | 409 kts | 351° |
| 2026-05-05 13:30 | 38.19228 | 30.80160 | 28935 ft | 410 kts | 349° |
| 2026-05-05 13:30 | 38.22016 | 30.79644 | 29189 ft | 411 kts | 349° |
| 2026-05-05 13:30 | 38.24885 | 30.79111 | 29550 ft | 409 kts | 349° |
| 2026-05-05 13:30 | 38.27656 | 30.78613 | 29968 ft | 407 kts | 349° |
| 2026-05-05 13:31 | 38.30457 | 30.78127 | 30307 ft | 406 kts | 349° |
| 2026-05-05 13:31 | 38.33249 | 30.77653 | 30602 ft | 406 kts | 349° |
| 2026-05-05 13:31 | 38.36054 | 30.77183 | 30854 ft | 407 kts | 350° |
| 2026-05-05 13:31 | 38.38866 | 30.76716 | 31168 ft | 407 kts | 350° |
| 2026-05-05 13:32 | 38.41682 | 30.76250 | 31440 ft | 407 kts | 350° |
| 2026-05-05 13:32 | 38.44493 | 30.75786 | 31683 ft | 407 kts | 350° |
| 2026-05-05 13:32 | 38.47309 | 30.75319 | 31929 ft | 407 kts | 350° |
| 2026-05-05 13:32 | 38.50117 | 30.74854 | 32196 ft | 407 kts | 350° |
| 2026-05-05 13:33 | 38.52922 | 30.74388 | 32494 ft | 406 kts | 350° |
| 2026-05-05 13:33 | 38.55700 | 30.73927 | 32701 ft | 406 kts | 350° |
| 2026-05-05 13:33 | 38.58542 | 30.73454 | 32909 ft | 408 kts | 350° |
| 2026-05-05 13:33 | 38.61355 | 30.72986 | 33176 ft | 407 kts | 350° |
| 2026-05-05 13:34 | 38.64129 | 30.72523 | 33399 ft | 407 kts | 350° |
| 2026-05-05 13:34 | 38.66937 | 30.72055 | 33643 ft | 407 kts | 350° |
| 2026-05-05 13:34 | 38.69742 | 30.71587 | 33890 ft | 406 kts | 350° |
| 2026-05-05 13:34 | 38.72550 | 30.71118 | 34064 ft | 408 kts | 350° |
| 2026-05-05 13:35 | 38.75373 | 30.70646 | 34236 ft | 409 kts | 350° |
| 2026-05-05 13:35 | 38.78197 | 30.70174 | 34445 ft | 408 kts | 350° |
| 2026-05-05 13:35 | 38.81026 | 30.69700 | 34648 ft | 409 kts | 350° |
| 2026-05-05 13:35 | 38.83796 | 30.69132 | 34791 ft | 408 kts | 345° |
| 2026-05-05 13:36 | 38.86524 | 30.68101 | 34924 ft | 408 kts | 338° |
| 2026-05-05 13:36 | 38.89102 | 30.66579 | 35104 ft | 408 kts | 333° |
| 2026-05-05 13:36 | 38.91634 | 30.64917 | 35239 ft | 409 kts | 332° |
| 2026-05-05 13:36 | 38.94171 | 30.63238 | 35345 ft | 411 kts | 332° |
| 2026-05-05 13:37 | 38.96711 | 30.61560 | 35541 ft | 410 kts | 332° |
| 2026-05-05 13:37 | 38.99251 | 30.59888 | 35722 ft | 410 kts | 332° |
| 2026-05-05 13:37 | 39.01802 | 30.58214 | 35827 ft | 412 kts | 333° |
| 2026-05-05 13:37 | 39.04355 | 30.56543 | 35974 ft | 412 kts | 333° |
| 2026-05-05 13:38 | 39.09487 | 30.53189 | 36035 ft | 415 kts | 333° |
| 2026-05-05 13:38 | 39.14626 | 30.49828 | 36036 ft | 412 kts | 333° |
| 2026-05-05 13:39 | 39.19701 | 30.46503 | 36048 ft | 410 kts | 333° |
| 2026-05-05 13:39 | 39.24787 | 30.43166 | 36044 ft | 409 kts | 333° |
| 2026-05-05 13:40 | 39.29855 | 30.39837 | 36045 ft | 408 kts | 333° |
| 2026-05-05 13:40 | 39.34913 | 30.36504 | 36056 ft | 408 kts | 333° |
| 2026-05-05 13:41 | 39.39983 | 30.33158 | 36047 ft | 409 kts | 333° |
| 2026-05-05 13:41 | 39.45059 | 30.29806 | 36050 ft | 410 kts | 333° |
| 2026-05-05 13:42 | 39.50154 | 30.26456 | 36060 ft | 410 kts | 335° |
| 2026-05-05 13:42 | 39.55387 | 30.23585 | 36060 ft | 412 kts | 338° |
| 2026-05-05 13:43 | 39.60708 | 30.20807 | 36061 ft | 413 kts | 338° |
| 2026-05-05 13:43 | 39.66044 | 30.17992 | 36058 ft | 414 kts | 337° |
| 2026-05-05 13:44 | 39.71368 | 30.15154 | 36060 ft | 414 kts | 337° |
| 2026-05-05 13:44 | 39.76699 | 30.12295 | 36061 ft | 415 kts | 337° |
| 2026-05-05 13:45 | 39.82038 | 30.09426 | 36063 ft | 415 kts | 337° |
| 2026-05-05 13:45 | 39.87347 | 30.06573 | 36046 ft | 415 kts | 337° |
| 2026-05-05 13:46 | 39.92676 | 30.03703 | 36053 ft | 414 kts | 337° |
| 2026-05-05 13:46 | 39.98000 | 30.00832 | 36063 ft | 413 kts | 337° |
| 2026-05-05 13:47 | 40.03310 | 29.97957 | 36062 ft | 413 kts | 337° |
| 2026-05-05 13:47 | 40.08617 | 29.95079 | 36060 ft | 412 kts | 337° |
| 2026-05-05 13:48 | 40.13904 | 29.92206 | 36068 ft | 411 kts | 337° |
| 2026-05-05 13:48 | 40.19186 | 29.89335 | 36076 ft | 411 kts | 337° |
| 2026-05-05 13:49 | 40.24434 | 29.86478 | 36073 ft | 411 kts | 337° |
| 2026-05-05 13:49 | 40.29706 | 29.83600 | 36077 ft | 411 kts | 337° |
| 2026-05-05 13:50 | 40.34985 | 29.80713 | 36074 ft | 411 kts | 337° |
| 2026-05-05 13:50 | 40.40272 | 29.77818 | 36079 ft | 412 kts | 337° |
| 2026-05-05 13:51 | 40.45559 | 29.74918 | 36072 ft | 413 kts | 337° |
| 2026-05-05 13:51 | 40.50866 | 29.72003 | 36073 ft | 413 kts | 337° |
| 2026-05-05 13:52 | 40.56175 | 29.69079 | 36066 ft | 414 kts | 337° |
| 2026-05-05 13:52 | 40.61511 | 29.66106 | 36070 ft | 417 kts | 337° |
| 2026-05-05 13:53 | 40.66730 | 29.62894 | 36069 ft | 418 kts | 328° |
| 2026-05-05 13:53 | 40.71355 | 29.58232 | 36075 ft | 419 kts | 322° |
| 2026-05-05 13:54 | 40.75125 | 29.54193 | 36068 ft | 420 kts | 322° |
| 2026-05-05 13:54 | 40.79677 | 29.49346 | 36075 ft | 421 kts | 322° |
| 2026-05-05 13:55 | 40.84252 | 29.44507 | 36076 ft | 421 kts | 322° |
| 2026-05-05 13:55 | 40.88838 | 29.39662 | 36076 ft | 422 kts | 322° |
| 2026-05-05 13:56 | 40.93431 | 29.34802 | 36074 ft | 423 kts | 322° |
| 2026-05-05 13:56 | 40.98031 | 29.29921 | 36076 ft | 424 kts | 322° |
| 2026-05-05 13:57 | 41.02598 | 29.25068 | 36070 ft | 424 kts | 322° |
| 2026-05-05 13:57 | 41.07213 | 29.20156 | 36076 ft | 425 kts | 322° |
| 2026-05-05 13:58 | 41.11773 | 29.15181 | 36067 ft | 426 kts | 317° |
| 2026-05-05 13:58 | 41.15477 | 29.09017 | 36082 ft | 429 kts | 305° |
| 2026-05-05 13:59 | 41.20382 | 28.99046 | 36073 ft | 430 kts | 305° |
| 2026-05-05 14:00 | 41.25305 | 28.89120 | 36073 ft | 430 kts | 305° |
| 2026-05-05 14:00 | 41.28610 | 28.82483 | 36073 ft | 431 kts | 305° |
| 2026-05-05 14:01 | 41.31916 | 28.75834 | 36072 ft | 431 kts | 305° |
| 2026-05-05 14:01 | 41.35227 | 28.69157 | 36072 ft | 432 kts | 305° |
| 2026-05-05 14:02 | 41.38537 | 28.62464 | 36074 ft | 432 kts | 305° |
| 2026-05-05 14:02 | 41.41836 | 28.55781 | 36074 ft | 432 kts | 305° |
| 2026-05-05 14:03 | 41.45139 | 28.49078 | 36077 ft | 432 kts | 305° |
| 2026-05-05 14:03 | 41.48440 | 28.42365 | 36073 ft | 433 kts | 305° |
| 2026-05-05 14:04 | 41.52334 | 28.36341 | 36085 ft | 431 kts | 316° |
| 2026-05-05 14:04 | 41.56660 | 28.30754 | 36075 ft | 432 kts | 317° |
| 2026-05-05 14:05 | 41.60985 | 28.25151 | 36074 ft | 434 kts | 316° |
| 2026-05-05 14:05 | 41.65292 | 28.19496 | 36076 ft | 435 kts | 316° |
| 2026-05-05 14:06 | 41.69601 | 28.13799 | 36073 ft | 436 kts | 316° |
| 2026-05-05 14:06 | 41.73912 | 28.08087 | 36072 ft | 436 kts | 316° |
| 2026-05-05 14:07 | 41.78203 | 28.02390 | 36080 ft | 437 kts | 316° |
| 2026-05-05 14:07 | 41.82526 | 27.96639 | 36073 ft | 438 kts | 316° |
| 2026-05-05 14:08 | 41.86852 | 27.90873 | 36078 ft | 438 kts | 316° |
| 2026-05-05 14:08 | 41.91183 | 27.85088 | 36074 ft | 439 kts | 316° |
| 2026-05-05 14:09 | 41.95510 | 27.79298 | 36072 ft | 439 kts | 316° |
| 2026-05-05 14:09 | 41.99730 | 27.73359 | 36068 ft | 439 kts | 313° |
| 2026-05-05 14:10 | 42.03791 | 27.67231 | 36072 ft | 439 kts | 312° |
| 2026-05-05 14:10 | 42.07842 | 27.61090 | 36072 ft | 438 kts | 313° |
| 2026-05-05 14:11 | 42.11901 | 27.54976 | 36073 ft | 437 kts | 313° |
| 2026-05-05 14:11 | 42.15930 | 27.48915 | 36075 ft | 436 kts | 313° |
| 2026-05-05 14:12 | 42.19973 | 27.42829 | 36076 ft | 435 kts | 313° |
| 2026-05-05 14:12 | 42.24016 | 27.36735 | 36072 ft | 435 kts | 313° |
| 2026-05-05 14:13 | 42.28054 | 27.30628 | 36072 ft | 435 kts | 313° |
| 2026-05-05 14:13 | 42.32077 | 27.24532 | 36075 ft | 435 kts | 313° |
| 2026-05-05 14:14 | 42.36102 | 27.18419 | 36073 ft | 435 kts | 313° |
| 2026-05-05 14:14 | 42.40091 | 27.12350 | 36074 ft | 434 kts | 313° |
| 2026-05-05 14:15 | 42.44106 | 27.06228 | 36073 ft | 434 kts | 313° |
| 2026-05-05 14:15 | 42.48110 | 27.00109 | 36077 ft | 434 kts | 313° |
| 2026-05-05 14:16 | 42.52115 | 26.93976 | 36069 ft | 434 kts | 313° |
| 2026-05-05 14:16 | 42.56088 | 26.87881 | 36065 ft | 434 kts | 313° |
| 2026-05-05 14:17 | 42.60077 | 26.81737 | 36068 ft | 433 kts | 311° |
| 2026-05-05 14:17 | 42.63650 | 26.75118 | 36066 ft | 434 kts | 306° |
| 2026-05-05 14:18 | 42.67023 | 26.68304 | 36057 ft | 434 kts | 306° |
| 2026-05-05 14:18 | 42.70379 | 26.61547 | 36046 ft | 433 kts | 306° |
| 2026-05-05 14:19 | 42.73784 | 26.54760 | 36036 ft | 433 kts | 306° |
| 2026-05-05 14:19 | 42.77196 | 26.47979 | 36049 ft | 433 kts | 306° |
| 2026-05-05 14:20 | 42.80602 | 26.41200 | 36040 ft | 433 kts | 306° |
| 2026-05-05 14:20 | 42.84000 | 26.34423 | 36033 ft | 433 kts | 306° |
| 2026-05-05 14:21 | 42.87371 | 26.27681 | 36041 ft | 433 kts | 306° |
| 2026-05-05 14:21 | 42.90765 | 26.20870 | 36027 ft | 434 kts | 306° |
| 2026-05-05 14:22 | 42.94163 | 26.14047 | 36030 ft | 434 kts | 306° |
| 2026-05-05 14:22 | 42.97555 | 26.07211 | 36024 ft | 434 kts | 306° |
| 2026-05-05 14:23 | 43.00938 | 26.00380 | 36030 ft | 435 kts | 306° |
| 2026-05-05 14:23 | 43.04319 | 25.93539 | 36021 ft | 435 kts | 306° |
| 2026-05-05 14:24 | 43.07681 | 25.86717 | 36015 ft | 434 kts | 306° |
| 2026-05-05 14:24 | 43.11052 | 25.79863 | 36016 ft | 433 kts | 306° |
| 2026-05-05 14:25 | 43.14407 | 25.73027 | 36017 ft | 432 kts | 306° |
| 2026-05-05 14:25 | 43.17839 | 25.66249 | 36013 ft | 431 kts | 308° |
| 2026-05-05 14:26 | 43.21399 | 25.59638 | 36016 ft | 431 kts | 308° |
| 2026-05-05 14:26 | 43.24952 | 25.53037 | 36019 ft | 430 kts | 308° |
| 2026-05-05 14:27 | 43.28484 | 25.46407 | 36022 ft | 429 kts | 308° |
| 2026-05-05 14:27 | 43.31995 | 25.39769 | 36020 ft | 429 kts | 308° |
| 2026-05-05 14:28 | 43.35500 | 25.33120 | 36018 ft | 429 kts | 308° |
| 2026-05-05 14:28 | 43.39001 | 25.26465 | 36020 ft | 430 kts | 308° |
| 2026-05-05 14:29 | 43.42481 | 25.19838 | 36017 ft | 430 kts | 308° |
| 2026-05-05 14:29 | 43.45978 | 25.13163 | 36020 ft | 430 kts | 308° |
| 2026-05-05 14:30 | 43.49471 | 25.06480 | 36019 ft | 430 kts | 308° |
| 2026-05-05 14:30 | 43.52962 | 24.99785 | 36010 ft | 430 kts | 308° |
| 2026-05-05 14:31 | 43.56450 | 24.93085 | 36013 ft | 430 kts | 308° |
| 2026-05-05 14:31 | 43.59930 | 24.86379 | 36010 ft | 430 kts | 308° |
| 2026-05-05 14:32 | 43.63385 | 24.79708 | 36008 ft | 429 kts | 308° |
| 2026-05-05 14:32 | 43.66852 | 24.73001 | 36012 ft | 429 kts | 308° |
| 2026-05-05 14:33 | 43.70307 | 24.66299 | 36009 ft | 428 kts | 308° |
| 2026-05-05 14:33 | 43.73757 | 24.59593 | 36020 ft | 427 kts | 308° |
| 2026-05-05 14:34 | 43.77319 | 24.53022 | 36009 ft | 426 kts | 311° |
| 2026-05-05 14:34 | 43.81156 | 24.46784 | 36009 ft | 425 kts | 313° |
| 2026-05-05 14:35 | 43.85017 | 24.40597 | 36007 ft | 424 kts | 313° |
| 2026-05-05 14:35 | 43.88828 | 24.34423 | 36010 ft | 424 kts | 313° |
| 2026-05-05 14:36 | 43.92637 | 24.28195 | 36010 ft | 423 kts | 312° |
| 2026-05-05 14:36 | 43.96439 | 24.21952 | 36001 ft | 423 kts | 312° |
| 2026-05-05 14:37 | 44.00238 | 24.15699 | 35999 ft | 423 kts | 312° |
| 2026-05-05 14:37 | 44.04026 | 24.09451 | 35999 ft | 423 kts | 312° |
| 2026-05-05 14:38 | 44.07181 | 24.04236 | 35999 ft | 423 kts | 312° |
| 2026-05-05 14:38 | 44.10968 | 23.97965 | 36000 ft | 423 kts | 312° |
| 2026-05-05 14:39 | 44.14761 | 23.91672 | 35993 ft | 424 kts | 312° |
| 2026-05-05 14:39 | 44.18546 | 23.85375 | 35989 ft | 424 kts | 312° |
| 2026-05-05 14:40 | 44.22333 | 23.79063 | 35989 ft | 424 kts | 312° |
| 2026-05-05 14:40 | 44.26095 | 23.72780 | 35995 ft | 425 kts | 312° |
| 2026-05-05 14:41 | 44.29878 | 23.66448 | 35989 ft | 425 kts | 312° |
| 2026-05-05 14:41 | 44.33663 | 23.60095 | 35991 ft | 425 kts | 312° |
| 2026-05-05 14:42 | 44.37438 | 23.53745 | 35994 ft | 425 kts | 311° |
| 2026-05-05 14:42 | 44.41215 | 23.47375 | 35991 ft | 425 kts | 311° |
| 2026-05-05 14:43 | 44.44991 | 23.40997 | 35988 ft | 425 kts | 311° |
| 2026-05-05 14:43 | 44.48762 | 23.34613 | 35988 ft | 425 kts | 311° |
| 2026-05-05 14:44 | 44.52507 | 23.28263 | 35982 ft | 425 kts | 311° |
| 2026-05-05 14:44 | 44.56265 | 23.21871 | 35992 ft | 424 kts | 311° |
| 2026-05-05 14:45 | 44.60016 | 23.15476 | 35985 ft | 424 kts | 311° |
| 2026-05-05 14:45 | 44.63756 | 23.09085 | 35985 ft | 424 kts | 311° |
| 2026-05-05 14:46 | 44.67494 | 23.02681 | 35990 ft | 423 kts | 311° |
| 2026-05-05 14:46 | 44.71232 | 22.96269 | 35975 ft | 424 kts | 311° |
| 2026-05-05 14:47 | 44.74940 | 22.89894 | 35984 ft | 423 kts | 311° |
| 2026-05-05 14:47 | 44.78665 | 22.83474 | 35980 ft | 423 kts | 311° |
| 2026-05-05 14:48 | 44.82381 | 22.77056 | 35980 ft | 423 kts | 311° |
| 2026-05-05 14:48 | 44.86095 | 22.70626 | 35988 ft | 423 kts | 310° |
| 2026-05-05 14:49 | 44.89808 | 22.64181 | 35970 ft | 423 kts | 310° |
| 2026-05-05 14:49 | 44.93490 | 22.57778 | 35973 ft | 423 kts | 310° |
| 2026-05-05 14:50 | 44.97195 | 22.51320 | 35970 ft | 423 kts | 310° |
| 2026-05-05 14:50 | 45.00892 | 22.44862 | 35965 ft | 422 kts | 310° |
| 2026-05-05 14:51 | 45.04586 | 22.38391 | 35960 ft | 423 kts | 310° |
| 2026-05-05 14:51 | 45.08278 | 22.31905 | 35968 ft | 423 kts | 310° |
| 2026-05-05 14:52 | 45.11975 | 22.25405 | 35962 ft | 423 kts | 310° |
| 2026-05-05 14:52 | 45.15655 | 22.18896 | 35965 ft | 424 kts | 309° |
| 2026-05-05 14:53 | 45.19061 | 22.12120 | 35951 ft | 425 kts | 306° |
| 2026-05-05 14:53 | 45.22375 | 22.05141 | 35956 ft | 426 kts | 306° |
| 2026-05-05 14:54 | 45.25695 | 21.98184 | 35954 ft | 426 kts | 306° |
| 2026-05-05 14:54 | 45.29037 | 21.91238 | 35954 ft | 426 kts | 306° |
| 2026-05-05 14:55 | 45.32369 | 21.84328 | 35954 ft | 426 kts | 306° |
| 2026-05-05 14:55 | 45.35716 | 21.77378 | 35948 ft | 426 kts | 306° |
| 2026-05-05 14:56 | 45.39061 | 21.70417 | 35953 ft | 426 kts | 305° |
| 2026-05-05 14:56 | 45.42397 | 21.63456 | 35951 ft | 426 kts | 305° |
| 2026-05-05 14:57 | 45.45729 | 21.56483 | 35950 ft | 425 kts | 305° |
| 2026-05-05 14:57 | 45.49053 | 21.49511 | 35952 ft | 425 kts | 305° |
| 2026-05-05 14:58 | 45.52349 | 21.42580 | 35957 ft | 425 kts | 305° |
| 2026-05-05 14:58 | 45.55666 | 21.35595 | 35964 ft | 424 kts | 305° |
| 2026-05-05 14:59 | 45.58971 | 21.28609 | 35962 ft | 425 kts | 305° |
| 2026-05-05 14:59 | 45.62274 | 21.21607 | 35965 ft | 425 kts | 305° |
| 2026-05-05 15:00 | 45.65037 | 21.15743 | 35962 ft | 425 kts | 304° |
| 2026-05-05 15:00 | 45.68870 | 21.07583 | 35966 ft | 425 kts | 304° |
| 2026-05-05 15:01 | 45.72170 | 21.00542 | 35963 ft | 425 kts | 304° |
| 2026-05-05 15:01 | 45.75460 | 20.93500 | 35963 ft | 426 kts | 304° |
| 2026-05-05 15:02 | 45.78751 | 20.86442 | 35965 ft | 426 kts | 304° |
| 2026-05-05 15:02 | 45.82038 | 20.79377 | 35958 ft | 426 kts | 304° |
| 2026-05-05 15:03 | 45.85324 | 20.72294 | 35961 ft | 426 kts | 304° |
| 2026-05-05 15:03 | 45.88585 | 20.65248 | 35965 ft | 426 kts | 303° |
| 2026-05-05 15:04 | 45.91863 | 20.58145 | 35962 ft | 427 kts | 303° |
| 2026-05-05 15:04 | 45.95143 | 20.51021 | 35964 ft | 427 kts | 303° |
| 2026-05-05 15:05 | 46.00059 | 20.40312 | 35962 ft | 428 kts | 303° |
| 2026-05-05 15:06 | 46.03329 | 20.33164 | 35963 ft | 428 kts | 303° |
| 2026-05-05 15:06 | 46.06601 | 20.25996 | 35966 ft | 428 kts | 303° |
| 2026-05-05 15:07 | 46.09868 | 20.18817 | 35962 ft | 429 kts | 303° |
| 2026-05-05 15:07 | 46.13142 | 20.11606 | 35947 ft | 430 kts | 303° |
| 2026-05-05 15:08 | 46.16412 | 20.04387 | 35946 ft | 430 kts | 303° |
| 2026-05-05 15:08 | 46.19679 | 19.97155 | 35943 ft | 430 kts | 303° |
| 2026-05-05 15:09 | 46.22914 | 19.89970 | 35942 ft | 429 kts | 303° |
| 2026-05-05 15:09 | 46.26164 | 19.82738 | 35945 ft | 429 kts | 302° |
| 2026-05-05 15:10 | 46.29410 | 19.75497 | 35944 ft | 428 kts | 302° |
| 2026-05-05 15:10 | 46.32653 | 19.68244 | 35943 ft | 428 kts | 302° |
| 2026-05-05 15:11 | 46.35862 | 19.61046 | 35945 ft | 428 kts | 302° |
| 2026-05-05 15:11 | 46.39085 | 19.53801 | 35948 ft | 428 kts | 302° |
| 2026-05-05 15:12 | 46.42305 | 19.46542 | 35943 ft | 428 kts | 302° |
| 2026-05-05 15:12 | 46.45515 | 19.39283 | 35946 ft | 428 kts | 302° |
| 2026-05-05 15:13 | 46.48725 | 19.32008 | 35943 ft | 428 kts | 302° |
| 2026-05-05 15:13 | 46.51930 | 19.24724 | 35945 ft | 428 kts | 302° |
| 2026-05-05 15:14 | 46.55114 | 19.17472 | 35946 ft | 429 kts | 301° |
| 2026-05-05 15:14 | 46.58335 | 19.10114 | 35941 ft | 429 kts | 301° |
| 2026-05-05 15:15 | 46.61516 | 19.02830 | 35935 ft | 428 kts | 301° |
| 2026-05-05 15:15 | 46.64702 | 18.95514 | 35934 ft | 428 kts | 301° |
| 2026-05-05 15:16 | 46.67885 | 18.88186 | 35920 ft | 428 kts | 301° |
| 2026-05-05 15:16 | 46.71059 | 18.80862 | 35913 ft | 427 kts | 301° |
| 2026-05-05 15:17 | 46.74230 | 18.73521 | 35920 ft | 427 kts | 300° |
| 2026-05-05 15:17 | 46.77384 | 18.66198 | 35911 ft | 426 kts | 300° |
| 2026-05-05 15:18 | 46.80518 | 18.58913 | 35919 ft | 425 kts | 300° |
| 2026-05-05 15:18 | 46.83656 | 18.51592 | 35916 ft | 425 kts | 300° |
| 2026-05-05 15:19 | 46.86787 | 18.44266 | 35918 ft | 425 kts | 300° |
| 2026-05-05 15:19 | 46.89916 | 18.36925 | 35915 ft | 425 kts | 300° |
| 2026-05-05 15:20 | 46.93036 | 18.29587 | 35915 ft | 425 kts | 300° |
| 2026-05-05 15:20 | 46.96160 | 18.22221 | 35922 ft | 426 kts | 300° |
| 2026-05-05 15:21 | 46.99281 | 18.14842 | 35921 ft | 427 kts | 300° |
| 2026-05-05 15:21 | 47.02385 | 18.07484 | 35920 ft | 427 kts | 300° |
| 2026-05-05 15:22 | 47.05507 | 18.00068 | 35921 ft | 428 kts | 300° |
| 2026-05-05 15:22 | 47.08628 | 17.92626 | 35921 ft | 428 kts | 300° |
| 2026-05-05 15:23 | 47.11750 | 17.85161 | 35916 ft | 429 kts | 300° |
| 2026-05-05 15:23 | 47.14343 | 17.78950 | 35913 ft | 429 kts | 300° |
| 2026-05-05 15:24 | 47.17461 | 17.71461 | 35913 ft | 430 kts | 300° |
| 2026-05-05 15:24 | 47.20586 | 17.63934 | 35903 ft | 430 kts | 299° |
| 2026-05-05 15:25 | 47.23698 | 17.56418 | 35909 ft | 430 kts | 299° |
| 2026-05-05 15:25 | 47.26811 | 17.48879 | 35903 ft | 430 kts | 299° |
| 2026-05-05 15:26 | 47.29918 | 17.41331 | 35909 ft | 430 kts | 299° |
| 2026-05-05 15:26 | 47.32994 | 17.33843 | 35913 ft | 430 kts | 299° |
| 2026-05-05 15:27 | 47.36079 | 17.26309 | 35907 ft | 430 kts | 299° |
| 2026-05-05 15:27 | 47.39169 | 17.18741 | 35910 ft | 430 kts | 299° |
| 2026-05-05 15:28 | 47.42244 | 17.11190 | 35904 ft | 430 kts | 299° |
| 2026-05-05 15:28 | 47.45319 | 17.03609 | 35895 ft | 430 kts | 299° |
| 2026-05-05 15:29 | 47.48388 | 16.96033 | 35883 ft | 430 kts | 299° |
| 2026-05-05 15:29 | 47.51459 | 16.88433 | 35869 ft | 430 kts | 299° |
| 2026-05-05 15:30 | 47.54518 | 16.80838 | 35860 ft | 429 kts | 299° |
| 2026-05-05 15:30 | 47.57575 | 16.73248 | 35854 ft | 429 kts | 299° |
| 2026-05-05 15:31 | 47.60673 | 16.65756 | 35845 ft | 429 kts | 300° |
| 2026-05-05 15:31 | 47.63801 | 16.58229 | 35835 ft | 429 kts | 300° |
| 2026-05-05 15:32 | 47.66925 | 16.50676 | 35831 ft | 428 kts | 299° |
| 2026-05-05 15:32 | 47.70027 | 16.43139 | 35820 ft | 427 kts | 299° |
| 2026-05-05 15:33 | 47.73101 | 16.35640 | 35814 ft | 427 kts | 299° |
| 2026-05-05 15:33 | 47.76184 | 16.28101 | 35814 ft | 427 kts | 299° |
| 2026-05-05 15:34 | 47.79260 | 16.20554 | 35803 ft | 426 kts | 299° |
| 2026-05-05 15:34 | 47.82329 | 16.13006 | 35806 ft | 426 kts | 299° |
| 2026-05-05 15:35 | 47.85389 | 16.05457 | 35802 ft | 426 kts | 299° |
| 2026-05-05 15:35 | 47.88447 | 15.97894 | 35805 ft | 425 kts | 299° |
| 2026-05-05 15:36 | 47.91498 | 15.90324 | 35803 ft | 426 kts | 299° |
| 2026-05-05 15:36 | 47.94544 | 15.82748 | 35802 ft | 425 kts | 299° |
| 2026-05-05 15:37 | 47.97586 | 15.75161 | 35795 ft | 427 kts | 299° |
| 2026-05-05 15:37 | 48.00611 | 15.67592 | 35796 ft | 427 kts | 299° |
| 2026-05-05 15:38 | 48.03656 | 15.59952 | 35795 ft | 428 kts | 299° |
| 2026-05-05 15:38 | 48.06698 | 15.52300 | 35797 ft | 429 kts | 298° |
| 2026-05-05 15:39 | 48.09739 | 15.44626 | 35800 ft | 429 kts | 298° |
| 2026-05-05 15:39 | 48.12776 | 15.36944 | 35795 ft | 429 kts | 298° |
| 2026-05-05 15:40 | 48.15809 | 15.29247 | 35804 ft | 428 kts | 298° |
| 2026-05-05 15:40 | 48.18812 | 15.21606 | 35796 ft | 428 kts | 298° |
| 2026-05-05 15:41 | 48.21826 | 15.13915 | 35797 ft | 427 kts | 298° |
| 2026-05-05 15:41 | 48.24828 | 15.06233 | 35764 ft | 427 kts | 298° |
| 2026-05-05 15:42 | 48.27823 | 14.98544 | 35761 ft | 426 kts | 298° |
| 2026-05-05 15:42 | 48.30810 | 14.90853 | 35748 ft | 426 kts | 298° |
| 2026-05-05 15:43 | 48.33787 | 14.83166 | 35747 ft | 425 kts | 298° |
| 2026-05-05 15:43 | 48.36757 | 14.75476 | 35746 ft | 424 kts | 298° |
| 2026-05-05 15:44 | 48.39719 | 14.67785 | 35741 ft | 425 kts | 298° |
| 2026-05-05 15:44 | 48.42670 | 14.60101 | 35736 ft | 424 kts | 298° |
| 2026-05-05 15:45 | 48.45593 | 14.52467 | 35745 ft | 423 kts | 297° |
| 2026-05-05 15:45 | 48.48533 | 14.44762 | 35735 ft | 424 kts | 297° |
| 2026-05-05 15:46 | 48.51467 | 14.37057 | 35731 ft | 423 kts | 297° |
| 2026-05-05 15:46 | 48.54395 | 14.29345 | 35731 ft | 423 kts | 297° |
| 2026-05-05 15:47 | 48.57317 | 14.21623 | 35738 ft | 423 kts | 297° |
| 2026-05-05 15:47 | 48.60233 | 14.13896 | 35728 ft | 424 kts | 297° |
| 2026-05-05 15:48 | 48.63152 | 14.06140 | 35734 ft | 424 kts | 297° |
| 2026-05-05 15:48 | 48.66062 | 13.98381 | 35728 ft | 424 kts | 297° |
| 2026-05-05 15:49 | 48.68967 | 13.90612 | 35730 ft | 425 kts | 297° |
| 2026-05-05 15:49 | 48.71876 | 13.82811 | 35729 ft | 425 kts | 297° |
| 2026-05-05 15:50 | 48.74781 | 13.74999 | 35733 ft | 425 kts | 297° |
| 2026-05-05 15:50 | 48.77919 | 13.67444 | 35747 ft | 428 kts | 304° |
| 2026-05-05 15:51 | 48.81545 | 13.60246 | 35738 ft | 429 kts | 305° |
| 2026-05-05 15:51 | 48.85193 | 13.53056 | 35738 ft | 430 kts | 304° |
| 2026-05-05 15:52 | 48.88816 | 13.45820 | 35745 ft | 431 kts | 304° |
| 2026-05-05 15:52 | 48.92437 | 13.38530 | 35740 ft | 431 kts | 304° |
| 2026-05-05 15:53 | 48.96049 | 13.31227 | 35738 ft | 432 kts | 304° |
| 2026-05-05 15:53 | 48.99636 | 13.23954 | 35737 ft | 432 kts | 304° |
| 2026-05-05 15:54 | 49.03232 | 13.16643 | 35748 ft | 431 kts | 304° |
| 2026-05-05 15:54 | 49.06835 | 13.09300 | 35753 ft | 432 kts | 304° |
| 2026-05-05 15:55 | 49.10440 | 13.01928 | 35750 ft | 433 kts | 304° |
| 2026-05-05 15:55 | 49.14044 | 12.94544 | 35751 ft | 434 kts | 303° |
| 2026-05-05 15:56 | 49.17643 | 12.87147 | 35759 ft | 434 kts | 303° |
| 2026-05-05 15:56 | 49.21251 | 12.79713 | 35759 ft | 435 kts | 303° |
| 2026-05-05 15:57 | 49.24859 | 12.72256 | 35754 ft | 436 kts | 303° |
| 2026-05-05 15:57 | 49.28441 | 12.64831 | 35752 ft | 437 kts | 303° |
| 2026-05-05 15:58 | 49.32050 | 12.57333 | 35749 ft | 437 kts | 303° |
| 2026-05-05 15:58 | 49.34883 | 12.49191 | 35755 ft | 431 kts | 287° |
| 2026-05-05 15:59 | 49.36873 | 12.40529 | 35762 ft | 431 kts | 286° |
| 2026-05-05 15:59 | 49.38857 | 12.31824 | 35764 ft | 432 kts | 287° |
| 2026-05-05 16:00 | 49.40866 | 12.23172 | 35772 ft | 434 kts | 287° |
| 2026-05-05 16:00 | 49.42899 | 12.14444 | 35769 ft | 435 kts | 287° |
| 2026-05-05 16:01 | 49.44935 | 12.05674 | 35769 ft | 436 kts | 287° |
| 2026-05-05 16:01 | 49.46969 | 11.96880 | 35772 ft | 437 kts | 287° |
| 2026-05-05 16:02 | 49.49010 | 11.88057 | 35770 ft | 438 kts | 287° |
| 2026-05-05 16:02 | 49.51062 | 11.79214 | 35764 ft | 439 kts | 287° |
| 2026-05-05 16:03 | 49.53111 | 11.70345 | 35775 ft | 439 kts | 287° |
| 2026-05-05 16:03 | 49.55140 | 11.61520 | 35765 ft | 439 kts | 286° |
| 2026-05-05 16:04 | 49.57273 | 11.52711 | 35766 ft | 441 kts | 292° |
| 2026-05-05 16:04 | 49.60068 | 11.44266 | 35785 ft | 442 kts | 295° |
| 2026-05-05 16:05 | 49.62958 | 11.35918 | 35799 ft | 441 kts | 295° |
| 2026-05-05 16:05 | 49.65819 | 11.27519 | 35802 ft | 441 kts | 294° |
| 2026-05-05 16:06 | 49.68614 | 11.19174 | 35813 ft | 440 kts | 294° |
| 2026-05-05 16:06 | 49.71412 | 11.10752 | 35812 ft | 440 kts | 294° |
| 2026-05-05 16:07 | 49.74203 | 11.02319 | 35815 ft | 441 kts | 293° |
| 2026-05-05 16:07 | 49.76988 | 10.93882 | 35830 ft | 440 kts | 293° |
| 2026-05-05 16:08 | 49.79763 | 10.85449 | 35833 ft | 441 kts | 293° |
| 2026-05-05 16:08 | 49.82077 | 10.78390 | 35832 ft | 441 kts | 293° |
| 2026-05-05 16:09 | 49.84847 | 10.69917 | 35831 ft | 442 kts | 293° |
| 2026-05-05 16:09 | 49.87631 | 10.61373 | 35836 ft | 442 kts | 293° |
| 2026-05-05 16:10 | 49.90386 | 10.52892 | 35839 ft | 444 kts | 292° |
| 2026-05-05 16:10 | 49.93160 | 10.44314 | 35834 ft | 445 kts | 292° |
| 2026-05-05 16:11 | 49.95935 | 10.35714 | 35829 ft | 446 kts | 292° |
| 2026-05-05 16:12 | 50.01491 | 10.18398 | 35833 ft | 448 kts | 292° |
| 2026-05-05 16:13 | 50.08421 | 9.96635 | 35823 ft | 449 kts | 292° |
| 2026-05-05 16:13 | 50.11179 | 9.87918 | 35829 ft | 449 kts | 292° |
| 2026-05-05 16:14 | 50.16660 | 9.70502 | 35823 ft | 448 kts | 292° |
| 2026-05-05 16:15 | 50.22113 | 9.53054 | 35822 ft | 446 kts | 291° |
| 2026-05-05 16:16 | 50.27510 | 9.35660 | 35818 ft | 443 kts | 291° |
| 2026-05-05 16:17 | 50.31519 | 9.22663 | 35820 ft | 441 kts | 291° |
| 2026-05-05 16:18 | 50.35223 | 9.09617 | 35829 ft | 435 kts | 283° |
| 2026-05-05 16:19 | 50.37837 | 8.96020 | 35829 ft | 434 kts | 282° |
| 2026-05-05 16:19 | 50.40479 | 8.82428 | 35826 ft | 434 kts | 282° |
| 2026-05-05 16:20 | 50.44024 | 8.64357 | 35821 ft | 435 kts | 282° |
| 2026-05-05 16:22 | 50.46606 | 8.41152 | 35829 ft | 433 kts | 274° |
| 2026-05-05 16:23 | 50.48427 | 8.22395 | 35830 ft | 437 kts | 274° |
| 2026-05-05 16:23 | 50.49801 | 8.08255 | 35833 ft | 439 kts | 274° |
| 2026-05-05 16:24 | 50.50714 | 7.98754 | 35838 ft | 439 kts | 274° |
| 2026-05-05 16:25 | 50.52068 | 7.84514 | 35835 ft | 440 kts | 274° |
| 2026-05-05 16:25 | 50.52961 | 7.75029 | 35695 ft | 430 kts | 274° |
| 2026-05-05 16:25 | 50.53394 | 7.70403 | 35229 ft | 427 kts | 274° |
| 2026-05-05 16:26 | 50.54255 | 7.61087 | 33796 ft | 435 kts | 273° |
| 2026-05-05 16:26 | 50.55122 | 7.51628 | 32333 ft | 443 kts | 274° |
| 2026-05-05 16:27 | 50.55567 | 7.46759 | 31592 ft | 445 kts | 274° |
| 2026-05-05 16:27 | 50.55956 | 7.41998 | 31003 ft | 442 kts | 270° |
| 2026-05-05 16:27 | 50.56068 | 7.37208 | 30565 ft | 435 kts | 266° |
| 2026-05-05 16:27 | 50.56065 | 7.32473 | 30129 ft | 430 kts | 265° |
| 2026-05-05 16:28 | 50.56049 | 7.27785 | 29615 ft | 428 kts | 266° |
| 2026-05-05 16:28 | 50.56059 | 7.23122 | 29083 ft | 425 kts | 266° |
| 2026-05-05 16:28 | 50.56087 | 7.18476 | 28551 ft | 423 kts | 267° |
| 2026-05-05 16:28 | 50.56082 | 7.13855 | 28028 ft | 420 kts | 265° |
| 2026-05-05 16:29 | 50.55972 | 7.09288 | 27532 ft | 417 kts | 264° |
| 2026-05-05 16:29 | 50.55837 | 7.04797 | 27041 ft | 413 kts | 264° |
| 2026-05-05 16:29 | 50.55714 | 7.00283 | 26521 ft | 411 kts | 264° |
| 2026-05-05 16:29 | 50.55605 | 6.95857 | 26027 ft | 409 kts | 264° |
| 2026-05-05 16:30 | 50.55496 | 6.91407 | 25550 ft | 406 kts | 264° |
| 2026-05-05 16:30 | 50.55383 | 6.86986 | 25034 ft | 404 kts | 264° |
| 2026-05-05 16:30 | 50.55266 | 6.82595 | 24548 ft | 401 kts | 265° |
| 2026-05-05 16:30 | 50.55150 | 6.78216 | 24083 ft | 398 kts | 265° |
| 2026-05-05 16:31 | 50.55032 | 6.73888 | 23635 ft | 395 kts | 265° |
| 2026-05-05 16:31 | 50.54960 | 6.69598 | 23397 ft | 388 kts | 269° |
| 2026-05-05 16:31 | 50.55262 | 6.65411 | 23135 ft | 386 kts | 277° |
| 2026-05-05 16:31 | 50.55770 | 6.61279 | 22923 ft | 392 kts | 278° |
| 2026-05-05 16:32 | 50.56316 | 6.57044 | 22675 ft | 398 kts | 279° |
| 2026-05-05 16:32 | 50.56860 | 6.52794 | 22417 ft | 396 kts | 279° |
| 2026-05-05 16:32 | 50.57394 | 6.48539 | 22159 ft | 393 kts | 278° |
| 2026-05-05 16:32 | 50.57910 | 6.44337 | 21909 ft | 390 kts | 278° |
| 2026-05-05 16:33 | 50.58417 | 6.40147 | 21655 ft | 388 kts | 278° |
| 2026-05-05 16:33 | 50.58915 | 6.35995 | 21409 ft | 387 kts | 278° |
| 2026-05-05 16:33 | 50.59411 | 6.31836 | 21159 ft | 386 kts | 278° |
| 2026-05-05 16:33 | 50.59905 | 6.27694 | 20906 ft | 384 kts | 278° |
| 2026-05-05 16:34 | 50.60394 | 6.23572 | 20659 ft | 384 kts | 278° |
| 2026-05-05 16:34 | 50.60883 | 6.19431 | 20406 ft | 383 kts | 278° |
| 2026-05-05 16:34 | 50.61366 | 6.15331 | 20092 ft | 381 kts | 278° |
| 2026-05-05 16:34 | 50.61844 | 6.11249 | 19693 ft | 377 kts | 278° |
| 2026-05-05 16:35 | 50.62318 | 6.07197 | 19263 ft | 375 kts | 278° |
| 2026-05-05 16:35 | 50.62789 | 6.03163 | 18831 ft | 373 kts | 278° |
| 2026-05-05 16:35 | 50.63254 | 5.99161 | 18394 ft | 370 kts | 278° |
| 2026-05-05 16:35 | 50.63711 | 5.95220 | 17932 ft | 369 kts | 278° |
| 2026-05-05 16:36 | 50.64171 | 5.91239 | 17442 ft | 369 kts | 278° |
| 2026-05-05 16:36 | 50.64628 | 5.87277 | 17031 ft | 366 kts | 278° |
| 2026-05-05 16:36 | 50.65033 | 5.83336 | 16624 ft | 362 kts | 275° |
| 2026-05-05 16:36 | 50.65287 | 5.79392 | 16209 ft | 359 kts | 273° |
| 2026-05-05 16:37 | 50.65476 | 5.75483 | 15785 ft | 357 kts | 272° |
| 2026-05-05 16:37 | 50.65648 | 5.71590 | 15362 ft | 355 kts | 272° |
| 2026-05-05 16:37 | 50.65818 | 5.67748 | 14900 ft | 348 kts | 273° |
| 2026-05-05 16:37 | 50.65992 | 5.63961 | 14204 ft | 346 kts | 273° |
| 2026-05-05 16:38 | 50.66169 | 5.60179 | 13499 ft | 344 kts | 274° |
| 2026-05-05 16:38 | 50.66346 | 5.56485 | 12860 ft | 341 kts | 274° |
| 2026-05-05 16:38 | 50.66527 | 5.52731 | 12215 ft | 337 kts | 274° |
| 2026-05-05 16:38 | 50.66702 | 5.49114 | 11594 ft | 333 kts | 274° |
| 2026-05-05 16:39 | 50.66878 | 5.45487 | 10950 ft | 331 kts | 274° |
| 2026-05-05 16:39 | 50.67051 | 5.41878 | 10675 ft | 325 kts | 274° |
| 2026-05-05 16:39 | 50.67218 | 5.38398 | 10595 ft | 313 kts | 274° |
| 2026-05-05 16:39 | 50.67379 | 5.35030 | 10509 ft | 300 kts | 274° |
| 2026-05-05 16:40 | 50.67532 | 5.31829 | 10204 ft | 290 kts | 274° |
| 2026-05-05 16:40 | 50.67682 | 5.28655 | 9689 ft | 289 kts | 274° |
| 2026-05-05 16:40 | 50.67830 | 5.25493 | 9192 ft | 289 kts | 274° |
| 2026-05-05 16:40 | 50.67977 | 5.22333 | 8894 ft | 287 kts | 274° |
| 2026-05-05 16:41 | 50.68117 | 5.19303 | 8644 ft | 284 kts | 274° |
| 2026-05-05 16:41 | 50.68262 | 5.16143 | 8337 ft | 283 kts | 274° |
| 2026-05-05 16:41 | 50.68403 | 5.13055 | 8028 ft | 282 kts | 274° |
| 2026-05-05 16:41 | 50.68542 | 5.10023 | 7728 ft | 280 kts | 274° |
| 2026-05-05 16:42 | 50.68680 | 5.06962 | 7428 ft | 279 kts | 273° |
| 2026-05-05 16:42 | 50.68817 | 5.03917 | 7130 ft | 278 kts | 273° |
| 2026-05-05 16:42 | 50.68951 | 5.00921 | 6833 ft | 276 kts | 273° |
| 2026-05-05 16:42 | 50.69084 | 4.97939 | 6539 ft | 275 kts | 273° |
| 2026-05-05 16:43 | 50.69218 | 4.94927 | 6247 ft | 274 kts | 273° |
| 2026-05-05 16:43 | 50.69348 | 4.91975 | 5946 ft | 273 kts | 274° |
| 2026-05-05 16:43 | 50.69479 | 4.88993 | 5640 ft | 272 kts | 274° |
| 2026-05-05 16:43 | 50.69606 | 4.86057 | 5340 ft | 271 kts | 274° |
| 2026-05-05 16:44 | 50.69733 | 4.83110 | 5136 ft | 266 kts | 274° |
| 2026-05-05 16:44 | 50.69857 | 4.80215 | 4928 ft | 263 kts | 274° |
| 2026-05-05 16:44 | 50.69978 | 4.77402 | 4725 ft | 259 kts | 274° |
| 2026-05-05 16:44 | 50.70098 | 4.74588 | 4516 ft | 255 kts | 274° |
| 2026-05-05 16:45 | 50.70214 | 4.71843 | 4352 ft | 246 kts | 274° |
| 2026-05-05 16:45 | 50.70324 | 4.69198 | 4138 ft | 237 kts | 274° |
| 2026-05-05 16:45 | 50.70429 | 4.66674 | 3909 ft | 230 kts | 274° |
| 2026-05-05 16:45 | 50.70534 | 4.64178 | 3700 ft | 221 kts | 274° |
| 2026-05-05 16:46 | 50.70631 | 4.61833 | 3496 ft | 212 kts | 275° |
| 2026-05-05 16:46 | 50.70724 | 4.59560 | 3270 ft | 204 kts | 275° |
| 2026-05-05 16:46 | 50.70815 | 4.57352 | 3067 ft | 198 kts | 275° |
| 2026-05-05 16:46 | 50.70902 | 4.55234 | 2866 ft | 191 kts | 275° |
| 2026-05-05 16:47 | 50.70986 | 4.53167 | 2676 ft | 184 kts | 275° |
| 2026-05-05 16:47 | 50.71066 | 4.51165 | 2523 ft | 184 kts | 275° |
| 2026-05-05 16:47 | 50.71147 | 4.49166 | 2405 ft | 181 kts | 275° |
| 2026-05-05 16:47 | 50.71227 | 4.47187 | 2289 ft | 180 kts | 275° |
| 2026-05-05 16:48 | 50.71498 | 4.45287 | 2152 ft | 178 kts | 302° |
| 2026-05-05 16:48 | 50.72331 | 4.43892 | 2050 ft | 177 kts | 337° |
| 2026-05-05 16:48 | 50.73509 | 4.43696 | 2034 ft | 170 kts | 4° |
| 2026-05-05 16:48 | 50.74692 | 4.43834 | 1997 ft | 169 kts | 8° |
| 2026-05-05 16:49 | 50.75864 | 4.44072 | 1990 ft | 170 kts | 9° |
| 2026-05-05 16:49 | 50.77032 | 4.44406 | 1987 ft | 170 kts | 13° |
| 2026-05-05 16:49 | 50.78185 | 4.44843 | 1980 ft | 170 kts | 15° |
| 2026-05-05 16:49 | 50.79286 | 4.45290 | 1972 ft | 159 kts | 15° |
| 2026-05-05 16:50 | 50.80350 | 4.45727 | 1862 ft | 159 kts | 15° |
| 2026-05-05 16:50 | 50.81395 | 4.46154 | 1677 ft | 152 kts | 15° |
| 2026-05-05 16:50 | 50.82404 | 4.46566 | 1481 ft | 147 kts | 15° |
| 2026-05-05 16:50 | 50.83387 | 4.46970 | 1284 ft | 146 kts | 15° |
| 2026-05-05 16:51 | 50.84378 | 4.47376 | 1094 ft | 148 kts | 15° |
| 2026-05-05 16:51 | 50.85374 | 4.47771 | 884 ft | 148 kts | 14° |
| 2026-05-05 16:51 | 50.86373 | 4.48178 | 694 ft | 147 kts | 13° |
| 2026-05-05 16:51 | 50.87370 | 4.48592 | 501 ft | 149 kts | 14° |
| 2026-05-05 16:52 | 50.88371 | 4.49002 | 290 ft | 150 kts | 14° |
| 2026-05-05 16:52 | 50.89342 | 4.49408 | 167 ft | 137 kts | 15° |
| 2026-05-05 16:52 | 50.90103 | 4.49715 | 142 ft | 80 kts | 12° |
| 2026-05-05 16:52 | 50.90508 | 4.49881 | 130 ft | 43 kts | 14° |
| 2026-05-05 16:53 | 50.90641 | 4.49924 | 126 ft | 24 kts | 6° |
| 2026-05-05 16:53 | 50.90771 | 4.49920 | 120 ft | 12 kts | 351° |
| 2026-05-05 16:53 | 50.90836 | 4.49895 | 119 ft | 8 kts | 338° |
| 2026-05-05 16:53 | 50.90860 | 4.49828 | 118 ft | 8 kts | 266° |
| 2026-05-05 16:54 | 50.90823 | 4.49744 | 119 ft | 7 kts | 204° |
| 2026-05-05 16:54 | 50.90791 | 4.49729 | 121 ft | 7 kts | 194° |
| 2026-05-05 16:54 | 50.90744 | 4.49711 | 122 ft | 7 kts | 194° |
| 2026-05-05 16:54 | 50.90697 | 4.49694 | 124 ft | 7 kts | 193° |
| 2026-05-05 16:55 | 50.90652 | 4.49677 | 125 ft | 7 kts | 195° |
| 2026-05-05 16:55 | 50.90607 | 4.49657 | 127 ft | 7 kts | 193° |
| 2026-05-05 16:55 | 50.90559 | 4.49635 | 128 ft | 7 kts | 197° |
| 2026-05-05 16:55 | 50.90511 | 4.49613 | 130 ft | 7 kts | 196° |
| 2026-05-05 16:56 | 50.90465 | 4.49594 | 132 ft | 7 kts | 192° |
| 2026-05-05 16:56 | 50.90419 | 4.49576 | 133 ft | 7 kts | 199° |
| 2026-05-05 16:56 | 50.90387 | 4.49526 | 134 ft | 7 kts | 244° |
| 2026-05-05 16:56 | 50.90366 | 4.49455 | 134 ft | 8 kts | 246° |
| 2026-05-05 16:57 | 50.90338 | 4.49354 | 135 ft | 12 kts | 245° |
| 2026-05-05 16:57 | 50.90302 | 4.49231 | 135 ft | 12 kts | 245° |
| 2026-05-05 16:57 | 50.90265 | 4.49109 | 136 ft | 12 kts | 245° |
| 2026-05-05 16:57 | 50.90231 | 4.48985 | 136 ft | 13 kts | 246° |
| 2026-05-05 16:58 | 50.90189 | 4.48842 | 136 ft | 14 kts | 245° |
| 2026-05-05 16:58 | 50.90149 | 4.48703 | 136 ft | 14 kts | 245° |
| 2026-05-05 16:58 | 50.90111 | 4.48611 | 137 ft | 8 kts | 199° |
| 2026-05-05 16:58 | 50.90073 | 4.48632 | 139 ft | 5 kts | 155° |
| 2026-05-05 16:59 | 50.90063 | 4.48639 | 140 ft | 0 kts | 156° |
| 2026-05-05 16:59 | 50.90061 | 4.48640 | 140 ft | 1 kts | 156° |
| 2026-05-05 16:59 | 50.90059 | 4.48642 | 140 ft | 0 kts | 156° |